sensor_id;sensor_type;location;lat;lon;timestamp;P1;durP1;ratioP1;P2;durP2;ratioP2
21657;SDS011;10990;48.174;9.782;2024-03-22T00:01:01;23.60;;;13.60;;
21657;SDS011;10990;48.174;9.782;2024-03-22T00:03:27;23.47;;;14.13;;
21657;SDS011;10990;48.174;9.782;2024-03-22T00:05:53;23.70;;;13.30;;
21657;SDS011;10990;48.174;9.782;2024-03-22T00:08:19;18.37;;;11.33;;
21657;SDS011;10990;48.174;9.782;2024-03-22T00:10:44;23.27;;;12.23;;
21657;SDS011;10990;48.174;9.782;2024-03-22T00:13:10;17.50;;;11.40;;
21657;SDS011;10990;48.174;9.782;2024-03-22T00:15:39;18.67;;;10.47;;
21657;SDS011;10990;48.174;9.782;2024-03-22T00:18:05;19.37;;;11.03;;
21657;SDS011;10990;48.174;9.782;2024-03-22T00:20:31;19.63;;;10.57;;
21657;SDS011;10990;48.174;9.782;2024-03-22T00:22:57;19.27;;;10.90;;
21657;SDS011;10990;48.174;9.782;2024-03-22T00:25:23;18.80;;;10.80;;
21657;SDS011;10990;48.174;9.782;2024-03-22T00:27:49;17.60;;;9.77;;
21657;SDS011;10990;48.174;9.782;2024-03-22T00:30:15;19.30;;;10.73;;
21657;SDS011;10990;48.174;9.782;2024-03-22T00:32:43;18.43;;;10.07;;
21657;SDS011;10990;48.174;9.782;2024-03-22T00:35:09;16.93;;;9.03;;
21657;SDS011;10990;48.174;9.782;2024-03-22T00:37:35;16.27;;;9.03;;
21657;SDS011;10990;48.174;9.782;2024-03-22T00:40:01;14.47;;;9.13;;
21657;SDS011;10990;48.174;9.782;2024-03-22T00:42:27;14.47;;;8.90;;
21657;SDS011;10990;48.174;9.782;2024-03-22T00:44:53;12.87;;;7.50;;
21657;SDS011;10990;48.174;9.782;2024-03-22T00:47:19;12.40;;;7.93;;
21657;SDS011;10990;48.174;9.782;2024-03-22T00:49:47;13.27;;;7.93;;
21657;SDS011;10990;48.174;9.782;2024-03-22T00:52:13;11.33;;;7.53;;
21657;SDS011;10990;48.174;9.782;2024-03-22T00:54:39;12.10;;;7.07;;
21657;SDS011;10990;48.174;9.782;2024-03-22T00:57:05;13.73;;;7.43;;
21657;SDS011;10990;48.174;9.782;2024-03-22T00:59:31;12.07;;;7.40;;
21657;SDS011;10990;48.174;9.782;2024-03-22T01:01:57;10.37;;;6.60;;
21657;SDS011;10990;48.174;9.782;2024-03-22T01:04:23;13.80;;;7.40;;
21657;SDS011;10990;48.174;9.782;2024-03-22T01:06:52;13.07;;;7.73;;
21657;SDS011;10990;48.174;9.782;2024-03-22T01:09:18;14.27;;;7.30;;
21657;SDS011;10990;48.174;9.782;2024-03-22T01:11:44;10.30;;;6.93;;
21657;SDS011;10990;48.174;9.782;2024-03-22T01:14:10;11.27;;;6.97;;
21657;SDS011;10990;48.174;9.782;2024-03-22T01:16:36;12.13;;;6.57;;
21657;SDS011;10990;48.174;9.782;2024-03-22T01:19:02;10.43;;;6.70;;
21657;SDS011;10990;48.174;9.782;2024-03-22T01:21:28;10.30;;;6.60;;
21657;SDS011;10990;48.174;9.782;2024-03-22T01:23:57;10.60;;;6.90;;
21657;SDS011;10990;48.174;9.782;2024-03-22T01:26:23;13.33;;;7.20;;
21657;SDS011;10990;48.174;9.782;2024-03-22T01:28:48;12.07;;;7.87;;
21657;SDS011;10990;48.174;9.782;2024-03-22T01:31:15;11.17;;;7.83;;
21657;SDS011;10990;48.174;9.782;2024-03-22T01:33:41;13.20;;;7.83;;
21657;SDS011;10990;48.174;9.782;2024-03-22T01:36:07;13.77;;;7.77;;
21657;SDS011;10990;48.174;9.782;2024-03-22T01:38:33;13.50;;;7.43;;
21657;SDS011;10990;48.174;9.782;2024-03-22T01:41:01;11.47;;;7.63;;
21657;SDS011;10990;48.174;9.782;2024-03-22T01:43:27;13.73;;;7.93;;
21657;SDS011;10990;48.174;9.782;2024-03-22T01:45:53;11.87;;;6.97;;
21657;SDS011;10990;48.174;9.782;2024-03-22T01:48:20;11.87;;;7.30;;
21657;SDS011;10990;48.174;9.782;2024-03-22T01:50:46;10.80;;;6.53;;
21657;SDS011;10990;48.174;9.782;2024-03-22T01:53:12;10.40;;;7.03;;
21657;SDS011;10990;48.174;9.782;2024-03-22T01:55:38;9.33;;;6.10;;
21657;SDS011;10990;48.174;9.782;2024-03-22T01:58:07;9.27;;;5.80;;
21657;SDS011;10990;48.174;9.782;2024-03-22T02:00:35;9.07;;;5.30;;
21657;SDS011;10990;48.174;9.782;2024-03-22T02:03:01;8.10;;;5.20;;
21657;SDS011;10990;48.174;9.782;2024-03-22T02:05:27;9.13;;;5.53;;
21657;SDS011;10990;48.174;9.782;2024-03-22T02:07:53;9.57;;;5.63;;
21657;SDS011;10990;48.174;9.782;2024-03-22T02:10:19;11.57;;;5.60;;
21657;SDS011;10990;48.174;9.782;2024-03-22T02:12:45;7.67;;;5.20;;
21657;SDS011;10990;48.174;9.782;2024-03-22T02:15:14;7.40;;;4.90;;
21657;SDS011;10990;48.174;9.782;2024-03-22T02:17:40;10.03;;;5.00;;
21657;SDS011;10990;48.174;9.782;2024-03-22T02:20:06;6.80;;;4.30;;
21657;SDS011;10990;48.174;9.782;2024-03-22T02:22:33;8.07;;;5.10;;
21657;SDS011;10990;48.174;9.782;2024-03-22T02:25:02;5.77;;;4.40;;
21657;SDS011;10990;48.174;9.782;2024-03-22T02:27:28;7.27;;;4.60;;
21657;SDS011;10990;48.174;9.782;2024-03-22T02:29:54;6.77;;;4.87;;
21657;SDS011;10990;48.174;9.782;2024-03-22T02:32:20;8.63;;;5.50;;
21657;SDS011;10990;48.174;9.782;2024-03-22T02:34:47;9.87;;;5.13;;
21657;SDS011;10990;48.174;9.782;2024-03-22T02:37:13;6.23;;;4.90;;
21657;SDS011;10990;48.174;9.782;2024-03-22T02:39:39;8.10;;;5.10;;
21657;SDS011;10990;48.174;9.782;2024-03-22T02:42:07;6.50;;;4.53;;
21657;SDS011;10990;48.174;9.782;2024-03-22T02:44:33;5.77;;;3.93;;
21657;SDS011;10990;48.174;9.782;2024-03-22T02:46:59;6.27;;;4.13;;
21657;SDS011;10990;48.174;9.782;2024-03-22T02:49:25;8.83;;;4.70;;
21657;SDS011;10990;48.174;9.782;2024-03-22T02:51:51;6.73;;;4.43;;
21657;SDS011;10990;48.174;9.782;2024-03-22T02:54:18;6.27;;;4.07;;
21657;SDS011;10990;48.174;9.782;2024-03-22T02:56:44;8.37;;;4.30;;
21657;SDS011;10990;48.174;9.782;2024-03-22T02:59:12;6.27;;;3.87;;
21657;SDS011;10990;48.174;9.782;2024-03-22T03:01:38;5.97;;;3.70;;
21657;SDS011;10990;48.174;9.782;2024-03-22T03:04:05;6.07;;;4.13;;
21657;SDS011;10990;48.174;9.782;2024-03-22T03:06:31;9.87;;;4.60;;
21657;SDS011;10990;48.174;9.782;2024-03-22T03:08:57;7.37;;;4.10;;
21657;SDS011;10990;48.174;9.782;2024-03-22T03:11:23;7.47;;;4.43;;
21657;SDS011;10990;48.174;9.782;2024-03-22T03:13:49;6.00;;;4.13;;
21657;SDS011;10990;48.174;9.782;2024-03-22T03:16:17;6.30;;;4.23;;
21657;SDS011;10990;48.174;9.782;2024-03-22T03:18:43;6.27;;;4.20;;
21657;SDS011;10990;48.174;9.782;2024-03-22T03:21:09;6.83;;;4.70;;
21657;SDS011;10990;48.174;9.782;2024-03-22T03:23:35;6.27;;;4.00;;
21657;SDS011;10990;48.174;9.782;2024-03-22T03:26:01;6.33;;;4.30;;
21657;SDS011;10990;48.174;9.782;2024-03-22T03:28:27;6.57;;;4.10;;
21657;SDS011;10990;48.174;9.782;2024-03-22T03:30:53;5.57;;;3.80;;
21657;SDS011;10990;48.174;9.782;2024-03-22T03:33:22;5.20;;;3.63;;
21657;SDS011;10990;48.174;9.782;2024-03-22T03:35:48;6.53;;;3.73;;
21657;SDS011;10990;48.174;9.782;2024-03-22T03:38:14;5.37;;;3.93;;
21657;SDS011;10990;48.174;9.782;2024-03-22T03:40:40;6.23;;;4.00;;
21657;SDS011;10990;48.174;9.782;2024-03-22T03:43:06;6.30;;;4.03;;
21657;SDS011;10990;48.174;9.782;2024-03-22T03:45:32;5.40;;;4.00;;
21657;SDS011;10990;48.174;9.782;2024-03-22T03:48:01;6.47;;;3.83;;
21657;SDS011;10990;48.174;9.782;2024-03-22T03:50:29;7.20;;;4.37;;
21657;SDS011;10990;48.174;9.782;2024-03-22T03:52:55;7.23;;;4.20;;
21657;SDS011;10990;48.174;9.782;2024-03-22T03:55:22;7.53;;;4.30;;
21657;SDS011;10990;48.174;9.782;2024-03-22T03:57:49;5.63;;;3.90;;
21657;SDS011;10990;48.174;9.782;2024-03-22T04:00:21;7.57;;;4.17;;
21657;SDS011;10990;48.174;9.782;2024-03-22T04:02:48;6.37;;;3.87;;
21657;SDS011;10990;48.174;9.782;2024-03-22T04:05:14;6.60;;;4.17;;
21657;SDS011;10990;48.174;9.782;2024-03-22T04:07:46;5.33;;;4.00;;
21657;SDS011;10990;48.174;9.782;2024-03-22T04:10:13;6.83;;;4.37;;
21657;SDS011;10990;48.174;9.782;2024-03-22T04:12:39;5.87;;;4.13;;
21657;SDS011;10990;48.174;9.782;2024-03-22T04:15:05;6.87;;;4.30;;
21657;SDS011;10990;48.174;9.782;2024-03-22T04:17:32;7.27;;;4.30;;
21657;SDS011;10990;48.174;9.782;2024-03-22T04:19:58;5.80;;;4.00;;
21657;SDS011;10990;48.174;9.782;2024-03-22T04:22:24;7.17;;;4.47;;
21657;SDS011;10990;48.174;9.782;2024-03-22T04:24:53;7.77;;;4.90;;
21657;SDS011;10990;48.174;9.782;2024-03-22T04:27:19;7.30;;;4.50;;
21657;SDS011;10990;48.174;9.782;2024-03-22T04:29:47;7.97;;;4.60;;
21657;SDS011;10990;48.174;9.782;2024-03-22T04:32:13;9.87;;;4.77;;
21657;SDS011;10990;48.174;9.782;2024-03-22T04:34:41;7.60;;;4.40;;
21657;SDS011;10990;48.174;9.782;2024-03-22T04:37:07;8.10;;;4.37;;
21657;SDS011;10990;48.174;9.782;2024-03-22T04:39:33;9.20;;;5.00;;
21657;SDS011;10990;48.174;9.782;2024-03-22T04:42:02;8.43;;;4.60;;
21657;SDS011;10990;48.174;9.782;2024-03-22T04:44:28;8.60;;;4.67;;
21657;SDS011;10990;48.174;9.782;2024-03-22T04:46:54;8.93;;;4.27;;
21657;SDS011;10990;48.174;9.782;2024-03-22T04:49:20;8.23;;;4.90;;
21657;SDS011;10990;48.174;9.782;2024-03-22T04:51:46;8.50;;;5.13;;
21657;SDS011;10990;48.174;9.782;2024-03-22T04:54:12;6.97;;;4.63;;
21657;SDS011;10990;48.174;9.782;2024-03-22T04:56:39;6.80;;;4.77;;
21657;SDS011;10990;48.174;9.782;2024-03-22T04:59:07;8.43;;;4.97;;
21657;SDS011;10990;48.174;9.782;2024-03-22T05:01:33;12.40;;;5.47;;
21657;SDS011;10990;48.174;9.782;2024-03-22T05:03:59;7.90;;;5.07;;
21657;SDS011;10990;48.174;9.782;2024-03-22T05:06:25;11.43;;;5.67;;
21657;SDS011;10990;48.174;9.782;2024-03-22T05:08:51;13.73;;;6.60;;
21657;SDS011;10990;48.174;9.782;2024-03-22T05:11:17;11.93;;;6.67;;
21657;SDS011;10990;48.174;9.782;2024-03-22T05:13:43;13.97;;;6.03;;
21657;SDS011;10990;48.174;9.782;2024-03-22T05:16:11;12.00;;;6.27;;
21657;SDS011;10990;48.174;9.782;2024-03-22T05:18:37;9.80;;;5.63;;
21657;SDS011;10990;48.174;9.782;2024-03-22T05:21:03;9.13;;;5.30;;
21657;SDS011;10990;48.174;9.782;2024-03-22T05:23:30;9.83;;;5.20;;
21657;SDS011;10990;48.174;9.782;2024-03-22T05:25:56;9.10;;;5.50;;
21657;SDS011;10990;48.174;9.782;2024-03-22T05:28:22;12.50;;;5.50;;
21657;SDS011;10990;48.174;9.782;2024-03-22T05:30:48;8.80;;;5.60;;
21657;SDS011;10990;48.174;9.782;2024-03-22T05:33:16;10.40;;;5.93;;
21657;SDS011;10990;48.174;9.782;2024-03-22T05:35:42;10.10;;;5.73;;
21657;SDS011;10990;48.174;9.782;2024-03-22T05:38:11;11.30;;;5.40;;
21657;SDS011;10990;48.174;9.782;2024-03-22T05:40:37;10.53;;;5.97;;
21657;SDS011;10990;48.174;9.782;2024-03-22T05:43:03;8.50;;;5.20;;
21657;SDS011;10990;48.174;9.782;2024-03-22T05:45:29;10.57;;;5.17;;
21657;SDS011;10990;48.174;9.782;2024-03-22T05:47:59;10.37;;;5.23;;
21657;SDS011;10990;48.174;9.782;2024-03-22T05:50:27;9.90;;;5.10;;
21657;SDS011;10990;48.174;9.782;2024-03-22T05:52:53;9.63;;;5.77;;
21657;SDS011;10990;48.174;9.782;2024-03-22T05:55:19;14.07;;;6.27;;
21657;SDS011;10990;48.174;9.782;2024-03-22T05:57:45;13.77;;;6.07;;
21657;SDS011;10990;48.174;9.782;2024-03-22T06:00:11;14.13;;;6.37;;
21657;SDS011;10990;48.174;9.782;2024-03-22T06:02:38;15.47;;;6.43;;
21657;SDS011;10990;48.174;9.782;2024-03-22T06:05:04;12.03;;;6.20;;
21657;SDS011;10990;48.174;9.782;2024-03-22T06:07:33;12.87;;;6.43;;
21657;SDS011;10990;48.174;9.782;2024-03-22T06:09:58;12.97;;;6.07;;
21657;SDS011;10990;48.174;9.782;2024-03-22T06:12:24;10.83;;;6.27;;
21657;SDS011;10990;48.174;9.782;2024-03-22T06:14:50;11.90;;;6.37;;
21657;SDS011;10990;48.174;9.782;2024-03-22T06:17:16;14.87;;;6.53;;
21657;SDS011;10990;48.174;9.782;2024-03-22T06:19:42;11.53;;;6.63;;
21657;SDS011;10990;48.174;9.782;2024-03-22T06:22:08;18.53;;;6.90;;
21657;SDS011;10990;48.174;9.782;2024-03-22T06:24:37;11.90;;;7.00;;
21657;SDS011;10990;48.174;9.782;2024-03-22T06:27:03;13.23;;;7.40;;
21657;SDS011;10990;48.174;9.782;2024-03-22T06:29:29;17.13;;;7.77;;
21657;SDS011;10990;48.174;9.782;2024-03-22T06:31:55;16.03;;;8.50;;
21657;SDS011;10990;48.174;9.782;2024-03-22T06:34:21;17.50;;;9.23;;
21657;SDS011;10990;48.174;9.782;2024-03-22T06:36:47;14.40;;;8.27;;
21657;SDS011;10990;48.174;9.782;2024-03-22T06:39:12;15.53;;;8.90;;
21657;SDS011;10990;48.174;9.782;2024-03-22T06:41:41;11.77;;;8.37;;
21657;SDS011;10990;48.174;9.782;2024-03-22T06:44:07;17.57;;;9.40;;
21657;SDS011;10990;48.174;9.782;2024-03-22T06:46:33;18.67;;;10.03;;
21657;SDS011;10990;48.174;9.782;2024-03-22T06:48:59;15.75;;;8.63;;
21657;SDS011;10990;48.174;9.782;2024-03-22T06:51:25;16.10;;;8.48;;
21657;SDS011;10990;48.174;9.782;2024-03-22T06:53:51;16.88;;;8.55;;
21657;SDS011;10990;48.174;9.782;2024-03-22T06:56:17;18.15;;;8.90;;
21657;SDS011;10990;48.174;9.782;2024-03-22T06:58:45;15.75;;;9.43;;
21657;SDS011;10990;48.174;9.782;2024-03-22T07:01:12;13.27;;;8.48;;
21657;SDS011;10990;48.174;9.782;2024-03-22T07:03:38;14.52;;;9.43;;
21657;SDS011;10990;48.174;9.782;2024-03-22T07:06:04;13.73;;;8.57;;
21657;SDS011;10990;48.174;9.782;2024-03-22T07:08:30;10.80;;;7.32;;
21657;SDS011;10990;48.174;9.782;2024-03-22T07:10:56;13.07;;;7.18;;
21657;SDS011;10990;48.174;9.782;2024-03-22T07:13:22;10.35;;;6.05;;
21657;SDS011;10990;48.174;9.782;2024-03-22T07:15:50;13.25;;;6.38;;
21657;SDS011;10990;48.174;9.782;2024-03-22T07:18:16;10.35;;;5.95;;
21657;SDS011;10990;48.174;9.782;2024-03-22T07:20:42;17.05;;;9.05;;
21657;SDS011;10990;48.174;9.782;2024-03-22T07:23:10;16.70;;;8.43;;
21657;SDS011;10990;48.174;9.782;2024-03-22T07:25:36;13.80;;;7.68;;
21657;SDS011;10990;48.174;9.782;2024-03-22T07:28:02;12.48;;;7.32;;
21657;SDS011;10990;48.174;9.782;2024-03-22T07:30:28;10.55;;;7.20;;
21657;SDS011;10990;48.174;9.782;2024-03-22T07:32:57;11.15;;;6.60;;
21657;SDS011;10990;48.174;9.782;2024-03-22T07:35:23;8.93;;;6.05;;
21657;SDS011;10990;48.174;9.782;2024-03-22T07:37:49;11.95;;;6.43;;
21657;SDS011;10990;48.174;9.782;2024-03-22T07:40:15;9.68;;;7.13;;
21657;SDS011;10990;48.174;9.782;2024-03-22T07:42:41;16.95;;;8.40;;
21657;SDS011;10990;48.174;9.782;2024-03-22T07:45:07;12.25;;;7.75;;
21657;SDS011;10990;48.174;9.782;2024-03-22T07:47:33;11.52;;;7.25;;
21657;SDS011;10990;48.174;9.782;2024-03-22T07:50:02;11.75;;;7.53;;
21657;SDS011;10990;48.174;9.782;2024-03-22T07:52:28;11.02;;;7.45;;
21657;SDS011;10990;48.174;9.782;2024-03-22T07:54:54;11.52;;;7.55;;
21657;SDS011;10990;48.174;9.782;2024-03-22T07:57:20;10.98;;;7.65;;
21657;SDS011;10990;48.174;9.782;2024-03-22T07:59:46;9.80;;;7.60;;
21657;SDS011;10990;48.174;9.782;2024-03-22T08:02:12;12.00;;;8.10;;
21657;SDS011;10990;48.174;9.782;2024-03-22T08:04:38;10.95;;;7.18;;
21657;SDS011;10990;48.174;9.782;2024-03-22T08:07:06;12.35;;;6.97;;
21657;SDS011;10990;48.174;9.782;2024-03-22T08:09:32;12.13;;;7.63;;
21657;SDS011;10990;48.174;9.782;2024-03-22T08:11:58;8.88;;;6.38;;
21657;SDS011;10990;48.174;9.782;2024-03-22T08:14:24;9.60;;;6.40;;
21657;SDS011;10990;48.174;9.782;2024-03-22T08:16:50;12.30;;;6.38;;
21657;SDS011;10990;48.174;9.782;2024-03-22T08:19:16;9.23;;;6.43;;
21657;SDS011;10990;48.174;9.782;2024-03-22T08:21:42;10.65;;;6.30;;
21657;SDS011;10990;48.174;9.782;2024-03-22T08:24:11;9.00;;;6.18;;
21657;SDS011;10990;48.174;9.782;2024-03-22T08:26:37;8.68;;;6.53;;
21657;SDS011;10990;48.174;9.782;2024-03-22T08:29:03;10.00;;;6.15;;
21657;SDS011;10990;48.174;9.782;2024-03-22T08:31:29;8.18;;;6.25;;
21657;SDS011;10990;48.174;9.782;2024-03-22T08:33:55;8.48;;;6.10;;
21657;SDS011;10990;48.174;9.782;2024-03-22T08:36:20;8.52;;;5.97;;
21657;SDS011;10990;48.174;9.782;2024-03-22T08:38:46;9.75;;;7.07;;
21657;SDS011;10990;48.174;9.782;2024-03-22T08:41:15;10.98;;;6.50;;
21657;SDS011;10990;48.174;9.782;2024-03-22T08:43:41;7.88;;;5.70;;
21657;SDS011;10990;48.174;9.782;2024-03-22T08:46:07;8.48;;;5.70;;
21657;SDS011;10990;48.174;9.782;2024-03-22T08:48:33;10.05;;;6.20;;
21657;SDS011;10990;48.174;9.782;2024-03-22T08:50:59;6.70;;;5.47;;
21657;SDS011;10990;48.174;9.782;2024-03-22T08:53:25;7.90;;;6.20;;
21657;SDS011;10990;48.174;9.782;2024-03-22T08:55:51;8.13;;;5.88;;
21657;SDS011;10990;48.174;9.782;2024-03-22T08:58:19;7.35;;;6.15;;
21657;SDS011;10990;48.174;9.782;2024-03-22T09:00:46;9.50;;;5.90;;
21657;SDS011;10990;48.174;9.782;2024-03-22T09:03:12;7.53;;;5.70;;
21657;SDS011;10990;48.174;9.782;2024-03-22T09:05:38;6.07;;;4.90;;
21657;SDS011;10990;48.174;9.782;2024-03-22T09:08:04;7.68;;;5.70;;
21657;SDS011;10990;48.174;9.782;2024-03-22T09:10:31;7.60;;;5.60;;
21657;SDS011;10990;48.174;9.782;2024-03-22T09:12:57;7.40;;;5.07;;
21657;SDS011;10990;48.174;9.782;2024-03-22T09:15:25;7.95;;;5.50;;
21657;SDS011;10990;48.174;9.782;2024-03-22T09:17:51;9.63;;;5.68;;
21657;SDS011;10990;48.174;9.782;2024-03-22T09:20:17;6.00;;;4.72;;
21657;SDS011;10990;48.174;9.782;2024-03-22T09:22:43;7.55;;;4.93;;
21657;SDS011;10990;48.174;9.782;2024-03-22T09:25:09;7.28;;;5.03;;
21657;SDS011;10990;48.174;9.782;2024-03-22T09:27:35;6.50;;;5.47;;
21657;SDS011;10990;48.174;9.782;2024-03-22T09:30:01;7.22;;;5.45;;
21657;SDS011;10990;48.174;9.782;2024-03-22T09:32:30;7.03;;;5.22;;
21657;SDS011;10990;48.174;9.782;2024-03-22T09:34:56;5.80;;;4.93;;
21657;SDS011;10990;48.174;9.782;2024-03-22T09:37:22;7.90;;;4.68;;
21657;SDS011;10990;48.174;9.782;2024-03-22T09:39:47;7.30;;;5.63;;
21657;SDS011;10990;48.174;9.782;2024-03-22T09:42:15;7.13;;;5.68;;
21657;SDS011;10990;48.174;9.782;2024-03-22T09:44:42;7.18;;;5.03;;
21657;SDS011;10990;48.174;9.782;2024-03-22T09:47:13;5.82;;;4.53;;
21657;SDS011;10990;48.174;9.782;2024-03-22T09:49:43;6.78;;;4.28;;
21657;SDS011;10990;48.174;9.782;2024-03-22T09:52:09;6.25;;;4.15;;
21657;SDS011;10990;48.174;9.782;2024-03-22T09:54:38;5.10;;;4.38;;
21657;SDS011;10990;48.174;9.782;2024-03-22T09:57:04;7.55;;;4.38;;
21657;SDS011;10990;48.174;9.782;2024-03-22T09:59:30;5.07;;;4.20;;
21657;SDS011;10990;48.174;9.782;2024-03-22T10:01:56;5.88;;;4.18;;
21657;SDS011;10990;48.174;9.782;2024-03-22T10:04:23;4.38;;;3.78;;
21657;SDS011;10990;48.174;9.782;2024-03-22T10:06:52;4.65;;;4.03;;
21657;SDS011;10990;48.174;9.782;2024-03-22T10:09:18;7.00;;;3.95;;
21657;SDS011;10990;48.174;9.782;2024-03-22T10:11:44;5.70;;;4.47;;
21657;SDS011;10990;48.174;9.782;2024-03-22T10:14:10;4.85;;;3.60;;
21657;SDS011;10990;48.174;9.782;2024-03-22T10:16:36;5.63;;;3.42;;
21657;SDS011;10990;48.174;9.782;2024-03-22T10:19:02;8.02;;;4.22;;
21657;SDS011;10990;48.174;9.782;2024-03-22T10:21:28;5.25;;;3.67;;
21657;SDS011;10990;48.174;9.782;2024-03-22T10:23:56;4.70;;;3.42;;
21657;SDS011;10990;48.174;9.782;2024-03-22T10:29:06;4.68;;;3.70;;
21657;SDS011;10990;48.174;9.782;2024-03-22T10:31:33;3.97;;;3.55;;
21657;SDS011;10990;48.174;9.782;2024-03-22T10:34:00;4.85;;;3.00;;
21657;SDS011;10990;48.174;9.782;2024-03-22T10:36:28;4.18;;;3.05;;
21657;SDS011;10990;48.174;9.782;2024-03-22T10:38:56;3.35;;;2.97;;
21657;SDS011;10990;48.174;9.782;2024-03-22T10:41:24;4.13;;;2.60;;
21657;SDS011;10990;48.174;9.782;2024-03-22T10:43:50;2.90;;;2.45;;
21657;SDS011;10990;48.174;9.782;2024-03-22T10:46:16;4.20;;;2.70;;
21657;SDS011;10990;48.174;9.782;2024-03-22T10:48:45;3.72;;;2.50;;
21657;SDS011;10990;48.174;9.782;2024-03-22T10:51:12;2.60;;;2.40;;
21657;SDS011;10990;48.174;9.782;2024-03-22T10:53:39;3.40;;;2.40;;
21657;SDS011;10990;48.174;9.782;2024-03-22T10:56:09;3.88;;;2.80;;
21657;SDS011;10990;48.174;9.782;2024-03-22T10:58:39;4.88;;;3.25;;
21657;SDS011;10990;48.174;9.782;2024-03-22T11:01:05;6.30;;;2.92;;
21657;SDS011;10990;48.174;9.782;2024-03-22T11:03:31;4.40;;;2.60;;
21657;SDS011;10990;48.174;9.782;2024-03-22T11:05:57;4.40;;;2.50;;
21657;SDS011;10990;48.174;9.782;2024-03-22T11:08:24;4.20;;;2.53;;
21657;SDS011;10990;48.174;9.782;2024-03-22T11:10:50;3.97;;;2.78;;
21657;SDS011;10990;48.174;9.782;2024-03-22T11:13:19;4.13;;;2.70;;
21657;SDS011;10990;48.174;9.782;2024-03-22T11:15:47;4.22;;;2.60;;
21657;SDS011;10990;48.174;9.782;2024-03-22T11:18:13;3.05;;;2.20;;
21657;SDS011;10990;48.174;9.782;2024-03-22T11:20:39;3.97;;;2.80;;
21657;SDS011;10990;48.174;9.782;2024-03-22T11:23:05;3.40;;;2.20;;
21657;SDS011;10990;48.174;9.782;2024-03-22T11:25:32;4.75;;;2.20;;
21657;SDS011;10990;48.174;9.782;2024-03-22T11:27:58;3.65;;;1.90;;
21657;SDS011;10990;48.174;9.782;2024-03-22T11:30:27;5.28;;;2.28;;
21657;SDS011;10990;48.174;9.782;2024-03-22T11:32:54;3.25;;;2.15;;
21657;SDS011;10990;48.174;9.782;2024-03-22T11:35:21;4.07;;;1.90;;
21657;SDS011;10990;48.174;9.782;2024-03-22T11:37:47;4.28;;;1.67;;
21657;SDS011;10990;48.174;9.782;2024-03-22T11:40:13;2.08;;;1.70;;
21657;SDS011;10990;48.174;9.782;2024-03-22T11:42:39;4.13;;;1.90;;
21657;SDS011;10990;48.174;9.782;2024-03-22T11:45:08;2.80;;;1.63;;
21657;SDS011;10990;48.174;9.782;2024-03-22T11:47:38;3.50;;;1.67;;
21657;SDS011;10990;48.174;9.782;2024-03-22T11:50:04;3.25;;;1.73;;
21657;SDS011;10990;48.174;9.782;2024-03-22T11:52:31;2.92;;;1.80;;
21657;SDS011;10990;48.174;9.782;2024-03-22T11:54:57;1.70;;;1.55;;
21657;SDS011;10990;48.174;9.782;2024-03-22T11:57:24;3.88;;;1.52;;
21657;SDS011;10990;48.174;9.782;2024-03-22T11:59:51;3.00;;;1.92;;
21657;SDS011;10990;48.174;9.782;2024-03-22T12:02:24;2.80;;;1.85;;
21657;SDS011;10990;48.174;9.782;2024-03-22T12:04:52;2.58;;;1.90;;
21657;SDS011;10990;48.174;9.782;2024-03-22T12:07:18;2.88;;;2.00;;
21657;SDS011;10990;48.174;9.782;2024-03-22T12:09:44;3.78;;;1.98;;
21657;SDS011;10990;48.174;9.782;2024-03-22T12:12:11;2.33;;;1.60;;
21657;SDS011;10990;48.174;9.782;2024-03-22T12:14:38;4.03;;;2.15;;
21657;SDS011;10990;48.174;9.782;2024-03-22T12:17:04;1.88;;;1.52;;
21657;SDS011;10990;48.174;9.782;2024-03-22T12:19:31;4.00;;;2.08;;
21657;SDS011;10990;48.174;9.782;2024-03-22T12:21:59;4.78;;;1.70;;
21657;SDS011;10990;48.174;9.782;2024-03-22T12:24:26;2.47;;;1.70;;
21657;SDS011;10990;48.174;9.782;2024-03-22T12:26:52;4.38;;;1.88;;
21657;SDS011;10990;48.174;9.782;2024-03-22T12:29:18;2.75;;;1.55;;
21657;SDS011;10990;48.174;9.782;2024-03-22T12:31:45;1.85;;;1.50;;
21657;SDS011;10990;48.174;9.782;2024-03-22T12:34:11;1.80;;;1.52;;
21657;SDS011;10990;48.174;9.782;2024-03-22T12:36:37;2.50;;;1.60;;
21657;SDS011;10990;48.174;9.782;2024-03-22T12:39:06;3.45;;;1.98;;
21657;SDS011;10990;48.174;9.782;2024-03-22T12:41:32;3.47;;;1.95;;
21657;SDS011;10990;48.174;9.782;2024-03-22T12:43:58;4.47;;;2.28;;
21657;SDS011;10990;48.174;9.782;2024-03-22T12:46:24;2.38;;;1.60;;
21657;SDS011;10990;48.174;9.782;2024-03-22T12:48:51;2.63;;;1.90;;
21657;SDS011;10990;48.174;9.782;2024-03-22T12:51:17;2.97;;;1.70;;
21657;SDS011;10990;48.174;9.782;2024-03-22T12:53:43;1.98;;;1.55;;
21657;SDS011;10990;48.174;9.782;2024-03-22T12:56:11;1.60;;;1.50;;
21657;SDS011;10990;48.174;9.782;2024-03-22T12:58:37;5.03;;;1.73;;
21657;SDS011;10990;48.174;9.782;2024-03-22T13:01:03;3.70;;;1.90;;
21657;SDS011;10990;48.174;9.782;2024-03-22T13:03:30;1.92;;;1.58;;
21657;SDS011;10990;48.174;9.782;2024-03-22T13:05:56;1.88;;;1.33;;
21657;SDS011;10990;48.174;9.782;2024-03-22T13:08:21;2.75;;;1.50;;
21657;SDS011;10990;48.174;9.782;2024-03-22T13:10:47;2.90;;;1.40;;
21657;SDS011;10990;48.174;9.782;2024-03-22T13:13:16;2.88;;;1.80;;
21657;SDS011;10990;48.174;9.782;2024-03-22T13:15:42;3.70;;;1.92;;
21657;SDS011;10990;48.174;9.782;2024-03-22T13:18:08;2.30;;;1.60;;
21657;SDS011;10990;48.174;9.782;2024-03-22T13:20:34;5.53;;;2.20;;
21657;SDS011;10990;48.174;9.782;2024-03-22T13:23:01;3.42;;;1.83;;
21657;SDS011;10990;48.174;9.782;2024-03-22T13:25:27;2.67;;;1.83;;
21657;SDS011;10990;48.174;9.782;2024-03-22T13:27:53;4.70;;;1.65;;
21657;SDS011;10990;48.174;9.782;2024-03-22T13:30:22;3.85;;;1.40;;
21657;SDS011;10990;48.174;9.782;2024-03-22T13:32:47;3.25;;;1.77;;
21657;SDS011;10990;48.174;9.782;2024-03-22T13:35:14;2.70;;;1.73;;
21657;SDS011;10990;48.174;9.782;2024-03-22T13:37:40;2.38;;;1.80;;
21657;SDS011;10990;48.174;9.782;2024-03-22T13:40:06;1.88;;;1.45;;
21657;SDS011;10990;48.174;9.782;2024-03-22T13:42:33;2.83;;;1.67;;
21657;SDS011;10990;48.174;9.782;2024-03-22T13:44:59;3.15;;;1.50;;
21657;SDS011;10990;48.174;9.782;2024-03-22T13:47:28;3.08;;;1.50;;
21657;SDS011;10990;48.174;9.782;2024-03-22T13:49:54;2.15;;;1.50;;
21657;SDS011;10990;48.174;9.782;2024-03-22T13:52:19;4.10;;;2.13;;
21657;SDS011;10990;48.174;9.782;2024-03-22T13:54:45;4.07;;;2.20;;
21657;SDS011;10990;48.174;9.782;2024-03-22T13:57:12;3.05;;;1.90;;
21657;SDS011;10990;48.174;9.782;2024-03-22T13:59:38;3.67;;;1.75;;
21657;SDS011;10990;48.174;9.782;2024-03-22T14:02:04;3.50;;;2.00;;
21657;SDS011;10990;48.174;9.782;2024-03-22T14:04:32;3.20;;;1.95;;
21657;SDS011;10990;48.174;9.782;2024-03-22T14:06:58;8.38;;;2.30;;
21657;SDS011;10990;48.174;9.782;2024-03-22T14:09:24;3.40;;;2.15;;
21657;SDS011;10990;48.174;9.782;2024-03-22T14:11:50;4.00;;;2.08;;
21657;SDS011;10990;48.174;9.782;2024-03-22T14:14:16;6.03;;;2.17;;
21657;SDS011;10990;48.174;9.782;2024-03-22T14:16:42;4.72;;;2.20;;
21657;SDS011;10990;48.174;9.782;2024-03-22T14:19:08;7.47;;;2.10;;
21657;SDS011;10990;48.174;9.782;2024-03-22T14:21:37;2.67;;;1.77;;
21657;SDS011;10990;48.174;9.782;2024-03-22T14:24:03;5.47;;;2.10;;
21657;SDS011;10990;48.174;9.782;2024-03-22T14:26:30;3.65;;;1.80;;
21657;SDS011;10990;48.174;9.782;2024-03-22T14:28:56;6.70;;;2.00;;
21657;SDS011;10990;48.174;9.782;2024-03-22T14:31:22;7.22;;;2.17;;
21657;SDS011;10990;48.174;9.782;2024-03-22T14:33:47;5.00;;;2.17;;
21657;SDS011;10990;48.174;9.782;2024-03-22T14:36:13;2.88;;;1.73;;
21657;SDS011;10990;48.174;9.782;2024-03-22T14:38:42;4.82;;;2.10;;
21657;SDS011;10990;48.174;9.782;2024-03-22T14:41:08;3.63;;;2.00;;